Oelwein, Iowa
Current Conditions -  °F | °C
As of 11:55 AM on Friday 24 Oct 2014 (Local Time) from KOLZ Reporting Station
Haze Haze  
Wind Chill: 55°   Ceiling: 300
Heat Index: 55°   Visibility: 1mi
Dew Point: 55°   Wind: 13mph
Humidity: 100%   Direction: 170°S
Pressure: 29.97"   Gusts: 20mph
Location:  42.68°N, 91.91°W
Report Text: KOLZ 241655Z AUTO 17011G17KT 1SM BR OVC003 13/13 A2997 RMK AO2
Loading
Personal Weather Stations






























Interactive Weather Map
Tropical Storm Tracking
New forecast layout! Learn more

10-Day Weather Forecast

Advertisements
Track Severe Weather on mobile